Mojave, California
Current Conditions -  °F | °C
As of 4:55 PM on Wednesday 22 Oct 2014 (Local Time) from KMHV Reporting Station
Clear Clear  
Wind Chill: 79°   Ceiling: Unl
Heat Index: 79°   Visibility: 10mi
Dew Point: 28°   Wind: 0mph
Humidity: 16%   Direction: NA
Pressure: 30.02"   Gusts: NA
Location:  35.05°N, 118.15°W
Report Text: KMHV 222355Z AUTO 00000KT 10SM CLR 26/M02 A3002 RMK AO1
Loading
Personal Weather Stations






























Interactive Weather Map
Tropical Storm Tracking
New forecast layout! Learn more

10-Day Weather Forecast

Advertisements
Track Severe Weather on mobile